TAF KLGB
AMD KLGB 090558Z 0906/1006 VRB03KT 5SM BR BKN015 FM091500 21006KT P6SM VCSH BKN015 FM091900 25012KT 4SM -RA BR BKN010 FM100200 27015KT P6SM SCT015 FM100500 29008KT P6SM SCT250=
METAR KLGB
WC KLGB
WS KLGB
WV KLGB